sensor_id;sensor_type;location;lat;lon;timestamp;pressure;altitude;pressure_sealevel;temperature
59339;BMP280;45117;50.960;5.500;2023-02-28T00:01:27;102028.66;;;-0.73
59339;BMP280;45117;50.960;5.500;2023-02-28T00:03:54;102027.09;;;-0.75
59339;BMP280;45117;50.960;5.500;2023-02-28T00:06:21;102029.78;;;-0.80
59339;BMP280;45117;50.960;5.500;2023-02-28T00:08:47;102028.44;;;-0.77
59339;BMP280;45117;50.960;5.500;2023-02-28T00:11:17;102033.22;;;-0.79
59339;BMP280;45117;50.960;5.500;2023-02-28T00:13:45;102027.53;;;-0.91
59339;BMP280;45117;50.960;5.500;2023-02-28T00:16:16;102021.47;;;-0.92
59339;BMP280;45117;50.960;5.500;2023-02-28T00:18:43;102022.63;;;-1.03
59339;BMP280;45117;50.960;5.500;2023-02-28T00:21:09;102030.75;;;-1.00
59339;BMP280;45117;50.960;5.500;2023-02-28T00:23:36;102032.88;;;-1.02
59339;BMP280;45117;50.960;5.500;2023-02-28T00:26:03;102031.06;;;-1.01
59339;BMP280;45117;50.960;5.500;2023-02-28T00:28:30;102038.63;;;-0.94
59339;BMP280;45117;50.960;5.500;2023-02-28T00:30:56;102040.81;;;-1.07
59339;BMP280;45117;50.960;5.500;2023-02-28T00:33:26;102034.78;;;-1.07
59339;BMP280;45117;50.960;5.500;2023-02-28T00:36:01;102037.47;;;-1.12
59339;BMP280;45117;50.960;5.500;2023-02-28T00:38:29;102035.38;;;-1.15
59339;BMP280;45117;50.960;5.500;2023-02-28T00:40:55;102037.69;;;-1.09
59339;BMP280;45117;50.960;5.500;2023-02-28T00:43:22;102032.50;;;-1.19
59339;BMP280;45117;50.960;5.500;2023-02-28T00:45:48;102038.47;;;-1.08
59339;BMP280;45117;50.960;5.500;2023-02-28T00:48:15;102040.03;;;-1.07
59339;BMP280;45117;50.960;5.500;2023-02-28T00:50:42;102038.53;;;-1.13
59339;BMP280;45117;50.960;5.500;2023-02-28T00:53:09;102040.34;;;-1.14
59339;BMP280;45117;50.960;5.500;2023-02-28T00:55:35;102039.66;;;-1.25
59339;BMP280;45117;50.960;5.500;2023-02-28T00:58:02;102041.22;;;-1.23
59339;BMP280;45117;50.960;5.500;2023-02-28T01:00:28;102039.34;;;-1.18
59339;BMP280;45117;50.960;5.500;2023-02-28T01:02:55;102046.44;;;-1.18
59339;BMP280;45117;50.960;5.500;2023-02-28T01:05:21;102042.59;;;-1.26
59339;BMP280;45117;50.960;5.500;2023-02-28T01:07:49;102037.84;;;-1.29
59339;BMP280;45117;50.960;5.500;2023-02-28T01:10:16;102049.47;;;-1.30
59339;BMP280;45117;50.960;5.500;2023-02-28T01:12:42;102048.69;;;-1.31
59339;BMP280;45117;50.960;5.500;2023-02-28T01:15:10;102042.34;;;-1.35
59339;BMP280;45117;50.960;5.500;2023-02-28T01:17:36;102041.59;;;-1.40
59339;BMP280;45117;50.960;5.500;2023-02-28T01:20:03;102059.50;;;-1.42
59339;BMP280;45117;50.960;5.500;2023-02-28T01:22:30;102053.13;;;-1.36
59339;BMP280;45117;50.960;5.500;2023-02-28T01:24:58;102053.13;;;-1.36
59339;BMP280;45117;50.960;5.500;2023-02-28T01:27:24;102047.63;;;-1.40
59339;BMP280;45117;50.960;5.500;2023-02-28T01:29:51;102039.53;;;-1.49
59339;BMP280;45117;50.960;5.500;2023-02-28T01:32:18;102048.19;;;-1.43
59339;BMP280;45117;50.960;5.500;2023-02-28T01:34:44;102044.00;;;-1.49
59339;BMP280;45117;50.960;5.500;2023-02-28T01:37:11;102054.28;;;-1.53
59339;BMP280;45117;50.960;5.500;2023-02-28T01:39:37;102041.41;;;-1.54
59339;BMP280;45117;50.960;5.500;2023-02-28T01:42:05;102043.53;;;-1.56
59339;BMP280;45117;50.960;5.500;2023-02-28T01:44:58;102040.69;;;-1.60
59339;BMP280;45117;50.960;5.500;2023-02-28T01:47:26;102046.47;;;-1.63
59339;BMP280;45117;50.960;5.500;2023-02-28T01:49:53;102038.31;;;-1.61
59339;BMP280;45117;50.960;5.500;2023-02-28T01:52:20;102036.44;;;-1.61
59339;BMP280;45117;50.960;5.500;2023-02-28T01:54:51;102033.34;;;-1.68
59339;BMP280;45117;50.960;5.500;2023-02-28T01:57:21;102034.72;;;-1.76
59339;BMP280;45117;50.960;5.500;2023-02-28T01:59:52;102035.44;;;-1.65
59339;BMP280;45117;50.960;5.500;2023-02-28T02:02:21;102035.19;;;-1.63
59339;BMP280;45117;50.960;5.500;2023-02-28T02:04:51;102035.13;;;-1.58
59339;BMP280;45117;50.960;5.500;2023-02-28T02:07:19;102032.00;;;-1.65
59339;BMP280;45117;50.960;5.500;2023-02-28T02:09:46;102030.97;;;-1.69
59339;BMP280;45117;50.960;5.500;2023-02-28T02:12:23;102038.59;;;-1.63
59339;BMP280;45117;50.960;5.500;2023-02-28T02:15:00;102034.09;;;-1.62
59339;BMP280;45117;50.960;5.500;2023-02-28T02:17:35;102028.66;;;-1.76
59339;BMP280;45117;50.960;5.500;2023-02-28T02:20:37;102025.78;;;-1.80
59339;BMP280;45117;50.960;5.500;2023-02-28T02:26:33;102014.75;;;-1.82
59339;BMP280;45117;50.960;5.500;2023-02-28T02:29:21;102018.19;;;-1.86
59339;BMP280;45117;50.960;5.500;2023-02-28T02:32:14;102019.50;;;-1.94
59339;BMP280;45117;50.960;5.500;2023-02-28T02:34:54;102021.91;;;-1.98
59339;BMP280;45117;50.960;5.500;2023-02-28T02:37:29;102018.25;;;-2.02
59339;BMP280;45117;50.960;5.500;2023-02-28T02:40:02;102019.28;;;-1.98
59339;BMP280;45117;50.960;5.500;2023-02-28T02:42:37;102014.03;;;-2.03
59339;BMP280;45117;50.960;5.500;2023-02-28T02:45:08;102013.28;;;-2.08
59339;BMP280;45117;50.960;5.500;2023-02-28T02:47:36;102009.63;;;-2.12
59339;BMP280;45117;50.960;5.500;2023-02-28T02:50:08;102008.59;;;-2.16
59339;BMP280;45117;50.960;5.500;2023-02-28T02:52:40;102008.34;;;-2.15
59339;BMP280;45117;50.960;5.500;2023-02-28T02:55:09;102008.09;;;-2.18
59339;BMP280;45117;50.960;5.500;2023-02-28T02:57:42;102002.81;;;-2.18
59339;BMP280;45117;50.960;5.500;2023-02-28T03:00:12;102009.69;;;-2.22
59339;BMP280;45117;50.960;5.500;2023-02-28T03:02:40;102006.75;;;-2.16
59339;BMP280;45117;50.960;5.500;2023-02-28T03:05:16;102010.72;;;-2.18
59339;BMP280;45117;50.960;5.500;2023-02-28T03:07:44;102005.97;;;-2.16
59339;BMP280;45117;50.960;5.500;2023-02-28T03:10:29;102010.16;;;-2.15
59339;BMP280;45117;50.960;5.500;2023-02-28T03:13:06;102008.59;;;-2.16
59339;BMP280;45117;50.960;5.500;2023-02-28T03:15:42;102005.47;;;-2.18
59339;BMP280;45117;50.960;5.500;2023-02-28T03:18:19;102004.34;;;-2.07
59339;BMP280;45117;50.960;5.500;2023-02-28T03:20:58;101999.09;;;-2.12
59339;BMP280;45117;50.960;5.500;2023-02-28T03:23:34;102008.59;;;-2.16
59339;BMP280;45117;50.960;5.500;2023-02-28T03:26:10;102002.25;;;-2.15
59339;BMP280;45117;50.960;5.500;2023-02-28T03:28:43;102007.81;;;-2.17
59339;BMP280;45117;50.960;5.500;2023-02-28T03:31:17;102014.88;;;-2.12
59339;BMP280;45117;50.960;5.500;2023-02-28T03:33:48;102014.34;;;-2.09
59339;BMP280;45117;50.960;5.500;2023-02-28T03:36:23;102011.41;;;-2.03
59339;BMP280;45117;50.960;5.500;2023-02-28T03:38:56;102011.97;;;-2.06
59339;BMP280;45117;50.960;5.500;2023-02-28T03:41:25;102017.47;;;-2.07
59339;BMP280;45117;50.960;5.500;2023-02-28T03:43:56;102017.50;;;-2.12
59339;BMP280;45117;50.960;5.500;2023-02-28T03:46:27;102023.28;;;-2.10
59339;BMP280;45117;50.960;5.500;2023-02-28T03:49:00;102027.25;;;-2.13
59339;BMP280;45117;50.960;5.500;2023-02-28T03:51:31;102022.50;;;-2.11
59339;BMP280;45117;50.960;5.500;2023-02-28T03:54:01;102024.91;;;-2.14
59339;BMP280;45117;50.960;5.500;2023-02-28T03:56:32;102016.44;;;-2.11
59339;BMP280;45117;50.960;5.500;2023-02-28T03:59:04;102008.56;;;-2.11
59339;BMP280;45117;50.960;5.500;2023-02-28T04:01:33;102020.44;;;-2.19
59339;BMP280;45117;50.960;5.500;2023-02-28T04:04:02;102020.44;;;-2.19
59339;BMP280;45117;50.960;5.500;2023-02-28T04:06:32;102020.66;;;-2.15
59339;BMP280;45117;50.960;5.500;2023-02-28T04:08:59;102024.91;;;-2.14
59339;BMP280;45117;50.960;5.500;2023-02-28T04:11:31;102021.72;;;-2.11
59339;BMP280;45117;50.960;5.500;2023-02-28T04:13:59;102031.44;;;-2.12
59339;BMP280;45117;50.960;5.500;2023-02-28T04:16:27;102015.94;;;-2.13
59339;BMP280;45117;50.960;5.500;2023-02-28T04:18:54;102022.78;;;-2.17
59339;BMP280;45117;50.960;5.500;2023-02-28T04:21:27;102033.34;;;-2.22
59339;BMP280;45117;50.960;5.500;2023-02-28T04:23:55;102036.50;;;-2.26
59339;BMP280;45117;50.960;5.500;2023-02-28T04:26:27;102034.94;;;-2.27
59339;BMP280;45117;50.960;5.500;2023-02-28T04:28:54;102028.06;;;-2.28
59339;BMP280;45117;50.960;5.500;2023-02-28T04:31:20;102030.47;;;-2.26
59339;BMP280;45117;50.960;5.500;2023-02-28T04:33:47;102021.78;;;-2.37
59339;BMP280;45117;50.960;5.500;2023-02-28T04:36:13;102025.44;;;-2.33
59339;BMP280;45117;50.960;5.500;2023-02-28T04:38:43;102027.56;;;-2.35
59339;BMP280;45117;50.960;5.500;2023-02-28T04:41:11;102024.94;;;-2.30
59339;BMP280;45117;50.960;5.500;2023-02-28T04:43:38;102033.88;;;-2.36
59339;BMP280;45117;50.960;5.500;2023-02-28T04:46:05;102025.72;;;-2.34
59339;BMP280;45117;50.960;5.500;2023-02-28T04:48:34;102030.44;;;-2.31
59339;BMP280;45117;50.960;5.500;2023-02-28T04:51:01;102028.63;;;-2.41
59339;BMP280;45117;50.960;5.500;2023-02-28T04:53:28;102021.53;;;-2.45
59339;BMP280;45117;50.960;5.500;2023-02-28T04:55:55;102026.28;;;-2.42
59339;BMP280;45117;50.960;5.500;2023-02-28T04:58:24;102034.44;;;-2.49
59339;BMP280;45117;50.960;5.500;2023-02-28T05:00:51;102026.88;;;-2.61
59339;BMP280;45117;50.960;5.500;2023-02-28T05:03:18;102023.69;;;-2.58
59339;BMP280;45117;50.960;5.500;2023-02-28T05:05:46;102023.97;;;-2.64
59339;BMP280;45117;50.960;5.500;2023-02-28T05:08:12;102021.34;;;-2.69
59339;BMP280;45117;50.960;5.500;2023-02-28T05:10:39;102019.47;;;-2.74
59339;BMP280;45117;50.960;5.500;2023-02-28T05:13:06;102023.94;;;-2.75
59339;BMP280;45117;50.960;5.500;2023-02-28T05:15:34;102031.84;;;-2.69
59339;BMP280;45117;50.960;5.500;2023-02-28T05:18:00;102021.84;;;-2.62
59339;BMP280;45117;50.960;5.500;2023-02-28T05:20:27;102023.97;;;-2.64
59339;BMP280;45117;50.960;5.500;2023-02-28T05:22:53;102022.63;;;-2.62
59339;BMP280;45117;50.960;5.500;2023-02-28T05:25:21;102017.66;;;-2.68
59339;BMP280;45117;50.960;5.500;2023-02-28T05:27:48;102022.09;;;-2.74
59339;BMP280;45117;50.960;5.500;2023-02-28T05:30:15;102017.13;;;-2.76
59339;BMP280;45117;50.960;5.500;2023-02-28T05:32:43;102015.56;;;-2.87
59339;BMP280;45117;50.960;5.500;2023-02-28T05:35:11;102014.00;;;-2.98
59339;BMP280;45117;50.960;5.500;2023-02-28T05:37:38;102012.16;;;-3.03
59339;BMP280;45117;50.960;5.500;2023-02-28T05:40:06;102018.47;;;-2.99
59339;BMP280;45117;50.960;5.500;2023-02-28T05:42:35;102015.84;;;-2.88
59339;BMP280;45117;50.960;5.500;2023-02-28T05:45:02;102016.88;;;-3.00
59339;BMP280;45117;50.960;5.500;2023-02-28T05:47:29;102024.50;;;-2.98
59339;BMP280;45117;50.960;5.500;2023-02-28T05:49:57;102028.44;;;-3.06
59339;BMP280;45117;50.960;5.500;2023-02-28T05:52:24;102032.63;;;-3.10
59339;BMP280;45117;50.960;5.500;2023-02-28T05:54:50;102034.50;;;-2.95
59339;BMP280;45117;50.960;5.500;2023-02-28T05:57:17;102028.19;;;-2.99
59339;BMP280;45117;50.960;5.500;2023-02-28T05:59:44;102034.22;;;-2.99
59339;BMP280;45117;50.960;5.500;2023-02-28T06:02:12;102037.38;;;-3.07
59339;BMP280;45117;50.960;5.500;2023-02-28T06:04:39;102027.13;;;-3.13
59339;BMP280;45117;50.960;5.500;2023-02-28T06:07:08;102035.50;;;-2.96
59339;BMP280;45117;50.960;5.500;2023-02-28T06:09:35;102030.81;;;-2.99
59339;BMP280;45117;50.960;5.500;2023-02-28T06:12:04;102037.91;;;-2.89
59339;BMP280;45117;50.960;5.500;2023-02-28T06:14:33;102037.38;;;-2.86
59339;BMP280;45117;50.960;5.500;2023-02-28T06:17:00;102036.56;;;-2.77
59339;BMP280;45117;50.960;5.500;2023-02-28T06:19:27;102042.34;;;-2.75
59339;BMP280;45117;50.960;5.500;2023-02-28T06:21:55;102040.75;;;-2.71
59339;BMP280;45117;50.960;5.500;2023-02-28T06:24:24;102047.63;;;-2.64
59339;BMP280;45117;50.960;5.500;2023-02-28T06:26:53;102048.66;;;-2.55
59339;BMP280;45117;50.960;5.500;2023-02-28T06:29:20;102042.84;;;-2.57
59339;BMP280;45117;50.960;5.500;2023-02-28T06:31:47;102044.69;;;-2.58
59339;BMP280;45117;50.960;5.500;2023-02-28T06:34:13;102054.94;;;-2.51
59339;BMP280;45117;50.960;5.500;2023-02-28T06:36:41;102056.78;;;-2.52
59339;BMP280;45117;50.960;5.500;2023-02-28T06:39:08;102057.03;;;-2.43
59339;BMP280;45117;50.960;5.500;2023-02-28T06:41:36;102054.41;;;-2.43
59339;BMP280;45117;50.960;5.500;2023-02-28T06:44:08;102059.91;;;-2.44
59339;BMP280;45117;50.960;5.500;2023-02-28T06:46:38;102061.50;;;-2.43
59339;BMP280;45117;50.960;5.500;2023-02-28T06:49:05;102069.38;;;-2.38
59339;BMP280;45117;50.960;5.500;2023-02-28T06:51:35;102072.28;;;-2.40
59339;BMP280;45117;50.960;5.500;2023-02-28T06:54:02;102069.38;;;-2.38
59339;BMP280;45117;50.960;5.500;2023-02-28T06:56:29;102082.00;;;-2.30
59339;BMP280;45117;50.960;5.500;2023-02-28T06:58:57;102079.59;;;-2.32
59339;BMP280;45117;50.960;5.500;2023-02-28T07:01:24;102086.44;;;-2.26
59339;BMP280;45117;50.960;5.500;2023-02-28T07:03:51;102088.28;;;-2.26
59339;BMP280;45117;50.960;5.500;2023-02-28T07:06:18;102077.78;;;-2.26
59339;BMP280;45117;50.960;5.500;2023-02-28T07:08:45;102091.66;;;-2.15
59339;BMP280;45117;50.960;5.500;2023-02-28T07:11:11;102088.53;;;-2.17
59339;BMP280;45117;50.960;5.500;2023-02-28T07:13:38;102103.50;;;-2.13
59339;BMP280;45117;50.960;5.500;2023-02-28T07:16:10;102093.75;;;-2.07
59339;BMP280;45117;50.960;5.500;2023-02-28T07:18:37;102091.09;;;-1.42
59339;BMP280;45117;50.960;5.500;2023-02-28T07:21:06;102097.06;;;1.36
59339;BMP280;45117;50.960;5.500;2023-02-28T07:23:33;102102.97;;;2.60
59339;BMP280;45117;50.960;5.500;2023-02-28T07:25:59;102097.13;;;4.00
59339;BMP280;45117;50.960;5.500;2023-02-28T07:28:26;102096.94;;;3.79
59339;BMP280;45117;50.960;5.500;2023-02-28T07:30:53;102100.34;;;4.83
59339;BMP280;45117;50.960;5.500;2023-02-28T07:33:20;102093.00;;;5.57
59339;BMP280;45117;50.960;5.500;2023-02-28T07:35:49;102100.72;;;6.12
59339;BMP280;45117;50.960;5.500;2023-02-28T07:38:15;102103.41;;;6.45
59339;BMP280;45117;50.960;5.500;2023-02-28T07:40:42;102104.66;;;6.27
59339;BMP280;45117;50.960;5.500;2023-02-28T07:43:08;102098.31;;;6.65
59339;BMP280;45117;50.960;5.500;2023-02-28T07:45:35;102099.56;;;6.67
59339;BMP280;45117;50.960;5.500;2023-02-28T07:48:02;102095.25;;;6.09
59339;BMP280;45117;50.960;5.500;2023-02-28T07:50:30;102106.13;;;5.32
59339;BMP280;45117;50.960;5.500;2023-02-28T07:52:57;102105.28;;;4.12
59339;BMP280;45117;50.960;5.500;2023-02-28T07:55:23;102105.22;;;3.20
59339;BMP280;45117;50.960;5.500;2023-02-28T07:57:50;102100.84;;;2.71
59339;BMP280;45117;50.960;5.500;2023-02-28T08:00:17;102102.81;;;2.65
59339;BMP280;45117;50.960;5.500;2023-02-28T08:02:44;102102.31;;;2.18
59339;BMP280;45117;50.960;5.500;2023-02-28T08:05:10;102100.56;;;2.14
59339;BMP280;45117;50.960;5.500;2023-02-28T08:07:38;102104.84;;;1.73
59339;BMP280;45117;50.960;5.500;2023-02-28T08:10:06;102111.69;;;2.38
59339;BMP280;45117;50.960;5.500;2023-02-28T08:12:33;102108.63;;;2.67
59339;BMP280;45117;50.960;5.500;2023-02-28T08:15:00;102107.72;;;2.94
59339;BMP280;45117;50.960;5.500;2023-02-28T08:17:26;102110.72;;;3.01
59339;BMP280;45117;50.960;5.500;2023-02-28T08:19:53;102104.09;;;2.90
59339;BMP280;45117;50.960;5.500;2023-02-28T08:22:20;102105.97;;;3.61
59339;BMP280;45117;50.960;5.500;2023-02-28T08:24:48;102107.63;;;3.39
59339;BMP280;45117;50.960;5.500;2023-02-28T08:27:14;102102.72;;;3.64
59339;BMP280;45117;50.960;5.500;2023-02-28T08:29:41;102109.66;;;4.51
59339;BMP280;45117;50.960;5.500;2023-02-28T08:32:07;102114.19;;;4.25
59339;BMP280;45117;50.960;5.500;2023-02-28T08:34:34;102109.50;;;4.30
59339;BMP280;45117;50.960;5.500;2023-02-28T08:37:00;102107.53;;;4.92
59339;BMP280;45117;50.960;5.500;2023-02-28T08:39:27;102107.88;;;4.81
59339;BMP280;45117;50.960;5.500;2023-02-28T08:41:55;102103.16;;;4.78
59339;BMP280;45117;50.960;5.500;2023-02-28T08:44:21;102110.66;;;5.61
59339;BMP280;45117;50.960;5.500;2023-02-28T08:46:47;102099.09;;;5.57
59339;BMP280;45117;50.960;5.500;2023-02-28T08:49:14;102107.09;;;5.28
59339;BMP280;45117;50.960;5.500;2023-02-28T08:51:41;102100.38;;;5.13
59339;BMP280;45117;50.960;5.500;2023-02-28T08:54:07;102096.59;;;5.82
59339;BMP280;45117;50.960;5.500;2023-02-28T08:56:35;102103.84;;;5.93
59339;BMP280;45117;50.960;5.500;2023-02-28T08:59:03;102101.84;;;5.10
59339;BMP280;45117;50.960;5.500;2023-02-28T09:01:30;102096.47;;;5.49
59339;BMP280;45117;50.960;5.500;2023-02-28T09:03:57;102100.81;;;4.85
59339;BMP280;45117;50.960;5.500;2023-02-28T09:06:26;102107.72;;;5.25
59339;BMP280;45117;50.960;5.500;2023-02-28T09:08:53;102103.13;;;4.96
59339;BMP280;45117;50.960;5.500;2023-02-28T09:11:23;102106.41;;;5.10
59339;BMP280;45117;50.960;5.500;2023-02-28T09:13:50;102098.31;;;4.89
59339;BMP280;45117;50.960;5.500;2023-02-28T09:16:18;102095.84;;;4.67
59339;BMP280;45117;50.960;5.500;2023-02-28T09:18:44;102104.00;;;4.44
59339;BMP280;45117;50.960;5.500;2023-02-28T09:21:13;102083.53;;;5.00
59339;BMP280;45117;50.960;5.500;2023-02-28T09:23:39;102099.94;;;4.73
59339;BMP280;45117;50.960;5.500;2023-02-28T09:26:07;102101.06;;;4.37
59339;BMP280;45117;50.960;5.500;2023-02-28T09:28:33;102105.69;;;4.66
59339;BMP280;45117;50.960;5.500;2023-02-28T09:31:00;102093.22;;;5.05
59339;BMP280;45117;50.960;5.500;2023-02-28T09:33:29;102098.09;;;5.11
59339;BMP280;45117;50.960;5.500;2023-02-28T09:36:00;102097.47;;;5.44
59339;BMP280;45117;50.960;5.500;2023-02-28T09:38:27;102100.03;;;4.94
59339;BMP280;45117;50.960;5.500;2023-02-28T09:40:56;102098.78;;;4.82
59339;BMP280;45117;50.960;5.500;2023-02-28T09:43:25;102090.38;;;4.63
59339;BMP280;45117;50.960;5.500;2023-02-28T09:45:56;102097.06;;;5.25
59339;BMP280;45117;50.960;5.500;2023-02-28T09:48:29;102092.78;;;5.41
59339;BMP280;45117;50.960;5.500;2023-02-28T09:51:00;102088.19;;;5.12
59339;BMP280;45117;50.960;5.500;2023-02-28T09:53:31;102095.13;;;5.04
59339;BMP280;45117;50.960;5.500;2023-02-28T09:56:01;102091.50;;;5.09
59339;BMP280;45117;50.960;5.500;2023-02-28T09:58:33;102087.19;;;4.87
59339;BMP280;45117;50.960;5.500;2023-02-28T10:01:05;102088.78;;;5.18
59339;BMP280;45117;50.960;5.500;2023-02-28T10:03:36;102086.66;;;5.11
59339;BMP280;45117;50.960;5.500;2023-02-28T10:06:09;102079.53;;;5.24
59339;BMP280;45117;50.960;5.500;2023-02-28T10:08:41;102087.69;;;5.27
59339;BMP280;45117;50.960;5.500;2023-02-28T10:11:12;102081.72;;;4.83
59339;BMP280;45117;50.960;5.500;2023-02-28T10:13:50;102093.72;;;5.07
59339;BMP280;45117;50.960;5.500;2023-02-28T10:16:24;102088.91;;;4.92
59339;BMP280;45117;50.960;5.500;2023-02-28T10:18:56;102087.38;;;5.20
59339;BMP280;45117;50.960;5.500;2023-02-28T10:21:26;102087.22;;;5.25
59339;BMP280;45117;50.960;5.500;2023-02-28T10:24:01;102078.34;;;5.63
59339;BMP280;45117;50.960;5.500;2023-02-28T10:26:30;102082.06;;;5.91
59339;BMP280;45117;50.960;5.500;2023-02-28T10:28:57;102092.16;;;5.65
59339;BMP280;45117;50.960;5.500;2023-02-28T10:31:25;102090.06;;;5.91
59339;BMP280;45117;50.960;5.500;2023-02-28T10:33:53;102083.84;;;5.87
59339;BMP280;45117;50.960;5.500;2023-02-28T10:36:21;102069.16;;;5.31
59339;BMP280;45117;50.960;5.500;2023-02-28T10:38:48;102074.31;;;5.36
59339;BMP280;45117;50.960;5.500;2023-02-28T10:41:27;102084.97;;;4.98
59339;BMP280;45117;50.960;5.500;2023-02-28T10:44:12;102091.31;;;5.23
59339;BMP280;45117;50.960;5.500;2023-02-28T10:46:40;102084.94;;;5.45
59339;BMP280;45117;50.960;5.500;2023-02-28T10:49:13;102074.25;;;5.15
59339;BMP280;45117;50.960;5.500;2023-02-28T10:51:41;102076.91;;;5.74
59339;BMP280;45117;50.960;5.500;2023-02-28T10:54:15;102079.28;;;5.67
59339;BMP280;45117;50.960;5.500;2023-02-28T10:56:42;102068.75;;;5.71
59339;BMP280;45117;50.960;5.500;2023-02-28T10:59:27;102056.50;;;5.28
59339;BMP280;45117;50.960;5.500;2023-02-28T11:01:54;102053.94;;;5.61
59339;BMP280;45117;50.960;5.500;2023-02-28T11:04:34;102060.22;;;5.35
59339;BMP280;45117;50.960;5.500;2023-02-28T11:07:05;102064.59;;;5.61
59339;BMP280;45117;50.960;5.500;2023-02-28T11:09:33;102062.03;;;5.73
59339;BMP280;45117;50.960;5.500;2023-02-28T11:12:02;102047.38;;;5.08
59339;BMP280;45117;50.960;5.500;2023-02-28T11:14:32;102057.56;;;5.06
59339;BMP280;45117;50.960;5.500;2023-02-28T11:17:03;102038.63;;;4.99
59339;BMP280;45117;50.960;5.500;2023-02-28T11:19:45;102030.84;;;5.23
59339;BMP280;45117;50.960;5.500;2023-02-28T11:22:18;102040.72;;;5.23
59339;BMP280;45117;50.960;5.500;2023-02-28T11:24:47;102040.72;;;4.93
59339;BMP280;45117;50.960;5.500;2023-02-28T11:27:26;102038.44;;;5.33
59339;BMP280;45117;50.960;5.500;2023-02-28T11:30:23;102027.56;;;5.18
59339;BMP280;45117;50.960;5.500;2023-02-28T11:32:50;102045.88;;;5.28
59339;BMP280;45117;50.960;5.500;2023-02-28T11:35:22;102038.31;;;5.92
59339;BMP280;45117;50.960;5.500;2023-02-28T11:37:50;102038.63;;;5.58
59339;BMP280;45117;50.960;5.500;2023-02-28T11:40:23;102051.88;;;5.66
59339;BMP280;45117;50.960;5.500;2023-02-28T11:42:59;102038.28;;;5.30
59339;BMP280;45117;50.960;5.500;2023-02-28T11:45:43;102043.47;;;4.97
59339;BMP280;45117;50.960;5.500;2023-02-28T11:48:19;102028.31;;;4.97
59339;BMP280;45117;50.960;5.500;2023-02-28T11:50:57;102020.00;;;4.99
59339;BMP280;45117;50.960;5.500;2023-02-28T11:53:42;102038.81;;;4.55
59339;BMP280;45117;50.960;5.500;2023-02-28T11:56:16;102049.19;;;4.86
59339;BMP280;45117;50.960;5.500;2023-02-28T11:58:51;102027.91;;;4.86
59339;BMP280;45117;50.960;5.500;2023-02-28T12:05:05;102036.19;;;4.85
59339;BMP280;45117;50.960;5.500;2023-02-28T12:07:45;102025.63;;;4.76
59339;BMP280;45117;50.960;5.500;2023-02-28T12:10:21;102026.31;;;4.94
59339;BMP280;45117;50.960;5.500;2023-02-28T12:12:54;102030.00;;;4.72
59339;BMP280;45117;50.960;5.500;2023-02-28T12:15:38;102018.97;;;4.91
59339;BMP280;45117;50.960;5.500;2023-02-28T12:18:27;102023.84;;;4.80
59339;BMP280;45117;50.960;5.500;2023-02-28T12:21:01;102026.50;;;4.80
59339;BMP280;45117;50.960;5.500;2023-02-28T12:23:46;102029.06;;;4.68
59339;BMP280;45117;50.960;5.500;2023-02-28T12:26:19;102011.25;;;4.98
59339;BMP280;45117;50.960;5.500;2023-02-28T12:28:51;102014.75;;;5.20
59339;BMP280;45117;50.960;5.500;2023-02-28T12:31:22;102016.53;;;5.07
59339;BMP280;45117;50.960;5.500;2023-02-28T12:33:52;102015.28;;;4.66
59339;BMP280;45117;50.960;5.500;2023-02-28T12:36:19;102019.06;;;4.65
59339;BMP280;45117;50.960;5.500;2023-02-28T12:38:53;102008.81;;;4.84
59339;BMP280;45117;50.960;5.500;2023-02-28T12:41:27;102002.59;;;5.10
59339;BMP280;45117;50.960;5.500;2023-02-28T12:44:00;102003.88;;;4.66
59339;BMP280;45117;50.960;5.500;2023-02-28T12:46:31;101995.16;;;4.95
59339;BMP280;45117;50.960;5.500;2023-02-28T12:49:02;101989.00;;;4.73
59339;BMP280;45117;50.960;5.500;2023-02-28T12:51:31;101983.59;;;4.91
59339;BMP280;45117;50.960;5.500;2023-02-28T12:54:07;101991.03;;;4.76
59339;BMP280;45117;50.960;5.500;2023-02-28T12:56:43;101999.03;;;5.06
59339;BMP280;45117;50.960;5.500;2023-02-28T12:59:18;101980.41;;;4.76
59339;BMP280;45117;50.960;5.500;2023-02-28T13:02:02;101984.47;;;4.74
59339;BMP280;45117;50.960;5.500;2023-02-28T13:04:57;101991.47;;;4.78
59339;BMP280;45117;50.960;5.500;2023-02-28T13:10:40;101977.63;;;5.23
59339;BMP280;45117;50.960;5.500;2023-02-28T13:13:14;101977.75;;;4.97
59339;BMP280;45117;50.960;5.500;2023-02-28T13:15:56;101970.28;;;4.91
59339;BMP280;45117;50.960;5.500;2023-02-28T13:18:29;101968.25;;;4.87
59339;BMP280;45117;50.960;5.500;2023-02-28T13:20:56;101973.22;;;4.98
59339;BMP280;45117;50.960;5.500;2023-02-28T13:23:38;101951.81;;;4.94
59339;BMP280;45117;50.960;5.500;2023-02-28T13:26:06;101969.47;;;4.99
59339;BMP280;45117;50.960;5.500;2023-02-28T13:29:21;101950.06;;;4.98
59339;BMP280;45117;50.960;5.500;2023-02-28T13:32:19;101968.09;;;5.13
59339;BMP280;45117;50.960;5.500;2023-02-28T13:35:13;101965.34;;;5.10
59339;BMP280;45117;50.960;5.500;2023-02-28T13:37:42;101952.53;;;5.03
59339;BMP280;45117;50.960;5.500;2023-02-28T13:40:30;101964.94;;;5.20
59339;BMP280;45117;50.960;5.500;2023-02-28T13:43:07;101962.47;;;5.15
59339;BMP280;45117;50.960;5.500;2023-02-28T13:45:34;101966.50;;;5.21
59339;BMP280;45117;50.960;5.500;2023-02-28T13:48:04;101965.09;;;5.45
59339;BMP280;45117;50.960;5.500;2023-02-28T13:50:33;101961.19;;;5.21
59339;BMP280;45117;50.960;5.500;2023-02-28T13:53:34;101962.28;;;5.20
59339;BMP280;45117;50.960;5.500;2023-02-28T13:56:10;101961.69;;;5.14
59339;BMP280;45117;50.960;5.500;2023-02-28T13:58:52;101954.91;;;4.96
59339;BMP280;45117;50.960;5.500;2023-02-28T14:01:31;101962.31;;;4.91
59339;BMP280;45117;50.960;5.500;2023-02-28T14:04:19;101953.09;;;4.88
59339;BMP280;45117;50.960;5.500;2023-02-28T14:06:54;101957.75;;;5.21
59339;BMP280;45117;50.960;5.500;2023-02-28T14:09:24;101949.72;;;5.00
59339;BMP280;45117;50.960;5.500;2023-02-28T14:11:51;101962.00;;;5.13
59339;BMP280;45117;50.960;5.500;2023-02-28T14:14:57;101955.81;;;5.00
59339;BMP280;45117;50.960;5.500;2023-02-28T14:17:24;101943.28;;;5.01
59339;BMP280;45117;50.960;5.500;2023-02-28T14:19:51;101936.97;;;5.14
59339;BMP280;45117;50.960;5.500;2023-02-28T14:22:44;101947.75;;;5.38
59339;BMP280;45117;50.960;5.500;2023-02-28T14:25:20;101939.75;;;5.18
59339;BMP280;45117;50.960;5.500;2023-02-28T14:27:56;101941.81;;;5.12
59339;BMP280;45117;50.960;5.500;2023-02-28T14:30:51;101932.50;;;5.06
59339;BMP280;45117;50.960;5.500;2023-02-28T14:33:23;101938.75;;;5.10